Flight Track Log - Related Links

Times and Time Zones

All times are in EDT time to prevent confusion due to time zone crossing. See the SKW6526 flight status page for this flight to view local times or setup timezone preferences in your user account.

Time Position Orientation Groundspeed Altitude Reporting Facility
EDT Latitude Longitude Course Direction KTS MPH feet Rate Location/Type
Sat 04:21:22 PM 33.9444 -118.4608 268° West 168 193 2,400  Level Los Angeles Center
Sat 04:22:24 PM 33.9425 -118.5261 268° West 195 224 4,400 1,935 Climbing Los Angeles Center
Sat 04:23:26 PM 33.9683 -118.6075 291° West 260 299 6,400 2,032 Climbing Los Angeles Center
Sat 04:24:28 PM 34.0408 -118.6375 341° North 277 319 8,600 2,323 Climbing Los Angeles Center
Sat 04:25:30 PM 34.1211 -118.6519 352° North 285 328 11,200 2,419 Climbing Los Angeles Center
Sat 04:26:32 PM 34.2003 -118.6497 North 296 341 13,600 2,177 Climbing Los Angeles Center
Sat 04:27:34 PM 34.2819 -118.6675 350° North 300 345 15,700 1,694 Climbing Los Angeles Center
Sat 04:28:36 PM 34.3669 -118.6878 349° North 314 361 17,100 1,403 Climbing Los Angeles Center
Sat 04:29:38 PM 34.4575 -118.7072 350° North 329 379 18,600 1,403 Climbing Los Angeles Center
Sat 04:30:40 PM 34.5475 -118.7328 347° North 334 384 20,000 1,355 Climbing Los Angeles Center
Sat 04:31:42 PM 34.6558 -118.7892 337° Northwest 354 407 21,400 1,306 Climbing Los Angeles Center
Sat 04:32:44 PM 34.7478 -118.8331 339° North 356 410 22,700 1,210 Climbing Los Angeles Center
Sat 04:33:46 PM 34.8431 -118.8756 340° North 363 418 23,900 1,161 Climbing Los Angeles Center
Sat 04:34:48 PM 34.9533 -118.9028 349° North 358 412 25,100 1,065 Climbing Los Angeles Center
Sat 04:35:50 PM 35.0561 -118.9183 353° North 369 425 26,100 871 Climbing Los Angeles Center
Sat 04:36:52 PM 35.1589 -118.9347 353° North 373 429 26,900 774 Climbing Los Angeles Center
Sat 04:37:54 PM 35.2656 -118.9514 353° North 384 442 27,700 677 Climbing Los Angeles Center
Sat 04:38:56 PM 35.3711 -118.9669 353° North 384 442 28,300 581 Climbing Los Angeles Center
Sat 04:39:58 PM 35.4817 -118.9836 353° North 392 451 28,900 629 Climbing Los Angeles Center
Sat 04:41:00 PM 35.6156 -119.0050 353° North 401 461 29,600 645 Climbing Los Angeles Center
Sat 04:41:59 PM 35.7286 -119.0219 353° North 411 473 30,200 650 Climbing Oakland Center
Sat 04:43:00 PM 35.8417 -119.0406 352° North 411 473 30,900 639 Climbing Oakland Center
Sat 04:44:01 PM 35.9553 -119.0581 353° North 413 475 31,500 541 Climbing Oakland Center
Sat 04:45:02 PM 36.0678 -119.0767 352° North 411 473 32,000 244 Climbing Oakland Center
Sat 04:46:04 PM 36.1811 -119.0947 353° North 411 473 32,000  Level Oakland Center
Sat 04:47:05 PM 36.2936 -119.1122 353° North 410 472 32,000  Level Oakland Center
Sat 04:48:06 PM 36.4061 -119.1300 353° North 407 468 32,000  Level Oakland Center
Sat 04:49:07 PM 36.5175 -119.1475 353° North 402 463 32,000  Level Oakland Center
Sat 04:50:09 PM 36.6275 -119.1669 352° North 401 461 32,000  Level Oakland Center
Sat 04:51:10 PM 36.7603 -119.1889 352° North 402 463 32,000  Level Oakland Center
Sat 04:52:11 PM 36.8706 -119.2067 353° North 405 466 32,000  Level Oakland Center
Sat 04:53:13 PM 36.9808 -119.2267 352° North 404 465 32,000  Level Oakland Center
Sat 04:54:14 PM 37.0903 -119.2453 352° North 412 474 32,000  Level Oakland Center
Sat 04:55:15 PM 37.2014 -119.2633 353° North 407 468 32,000  Level Oakland Center
Sat 04:56:17 PM 37.3064 -119.2714 357° North 385 443 32,000  Level Oakland Center
Sat 04:57:18 PM 37.4231 -119.3008 349° North 413 475 32,000  Level Oakland Center
Sat 04:58:19 PM 37.5344 -119.3208 352° North 405 466 32,000 -293 Level Oakland Center
Sat 04:59:21 PM 37.6547 -119.3339 355° North 401 461 31,400 -634 Descending Oakland Center
Sat 05:00:22 PM 37.7653 -119.3522 353° North 403 464 30,700 -689 Descending Oakland Center
Sat 05:01:23 PM 37.8769 -119.3725 352° North 404 465 30,000 -683 Descending Oakland Center
Sat 05:02:25 PM 37.9878 -119.3900 353° North 403 464 29,300 -683 Descending Oakland Center
Sat 05:03:26 PM 38.0989 -119.4089 352° North 403 464 28,600 -738 Descending Oakland Center
Sat 05:04:27 PM 38.2297 -119.4303 353° North 405 466 27,800 -787 Descending Oakland Center
Sat 05:05:28 PM 38.3411 -119.4492 352° North 403 464 27,000 -780 Descending Oakland Center
Sat 05:06:30 PM 38.4542 -119.4672 353° North 406 467 26,200 -780 Descending Oakland Center
Sat 05:07:31 PM 38.5672 -119.4867 352° North 409 471 25,400 -787 Descending Oakland Center
Sat 05:08:32 PM 38.6761 -119.5053 352° North 399 459 24,600 -878 Descending Oakland Center
Sat 05:09:34 PM 38.7739 -119.5233 352° North 367 422 23,600 -1,463 Descending Oakland Center
Sat 05:10:35 PM 38.8653 -119.5367 354° North 339 390 21,600 -1,967 Descending Oakland Center
Sat 05:11:36 PM 38.9583 -119.5539 352° North 335 386 19,600 -1,854 Descending Oakland Center
Sat 05:12:38 PM 39.0519 -119.5714 352° North 337 388 17,800 -2,049 Descending Oakland Center
Sat 05:13:39 PM 39.1575 -119.5892 353° North 325 374 15,400 -2,164 Descending Oakland Center
Sat 05:14:40 PM 39.2414 -119.6031 353° North 312 359 13,400 -1,854 Descending Oakland Center
Sat 05:15:42 PM 39.3233 -119.6178 352° North 304 350 11,600 -1,610 Descending Oakland Center
Sat 05:16:43 PM 39.4031 -119.6328 352° North 297 342 10,100 -1,180 Descending Oakland Center
Sat 05:17:44 PM 39.4772 -119.6450 353° North 286 329 9,200 -780 Descending Oakland Center
Sat 05:18:46 PM 39.5511 -119.6575 353° North 274 315 8,500 -1,000 Descending Oakland Center
Sat 05:19:56 PM 39.5667 -119.7333 285° West 212 244 7,000 -1,431 Descending Northern Cal TRACON
Sat 05:20:56 PM 39.5500 -119.7667 237° Southwest 169 194 5,400 -1,600 Descending Northern Cal TRACON
Sat 05:22:00 PM 39.4991 -119.7681 247° West  Level Estimated
Sat 05:29:00 PM 39.4991 -119.7681 247° West  Level Estimated
Sat 05:30:00 PM 39.4991 -119.7681 247° West  Level Estimated

Login

Don't have an account? Register now (free) for customized features, flight alerts, and more!